Time;durP1;ratioP1;P1;durP2;ratioP2;P2;SDS_P1;SDS_P2;PMS_P1;PMS_P2;Temp;Humidity;BMP_temperature;BMP_pressure;BME280_temperature;BME280_humidity;BME280_pressure;Samples;Min_cycle;Max_cycle;Signal;HPM_P1;HPM_P2
2022/09/17 00:00:58;;;;;;;5.50;0.50;;;11.00;99.90;;;;;;10332544;28;20142;-58
2022/09/17 00:06:08;;;;;;;1.25;0.60;;;11.00;99.90;;;;;;10335184;28;20050;-59
2022/09/17 00:11:13;;;;;;;3.05;0.80;;;11.00;99.90;;;;;;10328787;28;20129;-59
2022/09/17 00:16:22;;;;;;;3.03;0.77;;;11.00;99.90;;;;;;10331256;28;20054;-61
2022/09/17 00:21:25;;;;;;;4.70;0.70;;;11.00;99.90;;;;;;10329693;28;20039;-59
2022/09/17 00:26:28;;;;;;;3.45;0.75;;;11.00;99.90;;;;;;10330754;28;20129;-59
2022/09/17 00:31:30;;;;;;;6.95;0.82;;;11.00;99.90;;;;;;10332431;28;20145;-59
2022/09/17 00:36:37;;;;;;;4.97;0.68;;;11.00;99.90;;;;;;10331058;28;20086;-61
2022/09/17 00:41:38;;;;;;;1.77;0.70;;;11.00;99.90;;;;;;10334599;28;20125;-58
2022/09/17 00:46:43;;;;;;;3.00;0.47;;;11.00;99.90;;;;;;10347451;28;20065;-59
2022/09/17 00:52:00;;;;;;;1.70;0.60;;;11.00;99.90;;;;;;10324158;28;20097;-61
2022/09/17 00:57:01;;;;;;;2.97;0.60;;;11.00;99.90;;;;;;10332535;28;20133;-60
2022/09/17 01:02:04;;;;;;;2.35;0.50;;;11.00;99.90;;;;;;10347562;28;20138;-59
2022/09/17 01:07:38;;;;;;;5.20;0.80;;;11.00;99.90;;;;;;10328891;28;20100;-59
2022/09/17 01:12:48;;;;;;;4.82;0.70;;;11.00;99.90;;;;;;10332495;28;20056;-61
2022/09/17 01:18:07;;;;;;;7.15;0.70;;;11.00;99.90;;;;;;10331522;28;20064;-60
2022/09/17 01:24:06;;;;;;;2.20;0.82;;;11.00;99.90;;;;;;10327253;28;20094;-60
2022/09/17 01:29:13;;;;;;;4.35;0.50;;;11.10;99.90;;;;;;10287392;28;20137;-59
2022/09/17 01:34:38;;;;;;;3.22;0.40;;;11.10;99.90;;;;;;10312406;28;20077;-62
2022/09/17 01:40:16;;;;;;;8.77;0.82;;;11.10;99.90;;;;;;10329262;28;20496;-59
2022/09/17 01:45:31;;;;;;;9.87;0.70;;;11.10;99.90;;;;;;10330840;28;20046;-59
2022/09/17 01:50:39;;;;;;;4.15;0.65;;;11.10;99.90;;;;;;10327331;28;20069;-60
2022/09/17 01:55:44;;;;;;;3.38;0.98;;;11.10;99.90;;;;;;10329800;28;20057;-59
2022/09/17 02:00:50;;;;;;;1.33;0.40;;;11.10;99.90;;;;;;10318696;28;20132;-61
2022/09/17 02:06:02;;;;;;;3.42;0.90;;;11.10;99.90;;;;;;10329297;28;20084;-58
2022/09/17 02:11:08;;;;;;;2.38;0.40;;;11.10;99.90;;;;;;10326569;28;20042;-60
2022/09/17 02:16:19;;;;;;;0.82;0.47;;;11.20;99.90;;;;;;10327770;28;20078;-57
2022/09/17 02:21:50;;;;;;;2.20;0.50;;;11.20;99.90;;;;;;10325098;28;20055;-59
2022/09/17 02:27:01;;;;;;;0.60;0.40;;;11.20;99.90;;;;;;10334958;28;20046;-59
2022/09/17 02:32:03;;;;;;;1.23;0.50;;;11.20;99.90;;;;;;10330169;28;20039;-60
2022/09/17 02:37:05;;;;;;;1.83;0.40;;;11.20;99.90;;;;;;10337888;28;20092;-61
2022/09/17 02:42:32;;;;;;;1.55;0.40;;;11.20;99.90;;;;;;10333251;28;20052;-59
2022/09/17 02:47:52;;;;;;;0.47;0.30;;;11.10;99.90;;;;;;10344571;28;20096;-61
2022/09/17 02:53:04;;;;;;;1.98;0.50;;;11.00;99.90;;;;;;10333594;28;20137;-58
2022/09/17 02:58:27;;;;;;;2.40;0.52;;;11.00;99.90;;;;;;10335981;28;20129;-59
2022/09/17 03:03:34;;;;;;;4.43;0.73;;;10.90;99.90;;;;;;10346833;28;20097;-60
2022/09/17 03:08:41;;;;;;;3.22;0.50;;;10.80;99.90;;;;;;10344678;28;20430;-59
2022/09/17 03:13:42;;;;;;;4.22;0.60;;;10.70;99.90;;;;;;10343416;28;20460;-59
2022/09/17 03:18:44;;;;;;;3.72;1.40;;;10.70;99.90;;;;;;10335039;28;20563;-61
2022/09/17 03:23:46;;;;;;;1.27;0.30;;;10.80;99.90;;;;;;10333640;28;20133;-60
2022/09/17 03:28:47;;;;;;;2.67;0.68;;;10.70;99.90;;;;;;10331568;28;20073;-59
2022/09/17 03:33:49;;;;;;;2.10;0.43;;;10.70;99.90;;;;;;10336745;28;20445;-60
2022/09/17 03:38:55;;;;;;;5.00;0.38;;;10.70;99.90;;;;;;10333357;28;20145;-60
2022/09/17 03:43:57;;;;;;;2.45;0.35;;;10.70;99.90;;;;;;10331309;28;20084;-60
2022/09/17 03:48:58;;;;;;;3.67;0.40;;;10.60;99.90;;;;;;10331725;28;20457;-61
2022/09/17 03:54:01;;;;;;;6.72;0.50;;;10.60;99.90;;;;;;10336422;28;20121;-60
2022/09/17 03:59:03;;;;;;;4.93;0.57;;;10.60;99.90;;;;;;10329450;28;20524;-59
2022/09/17 04:04:05;;;;;;;5.60;0.40;;;10.50;99.90;;;;;;10341955;28;20050;-61
2022/09/17 04:09:07;;;;;;;5.28;0.45;;;10.50;99.90;;;;;;10334939;28;20129;-60
2022/09/17 04:14:09;;;;;;;2.65;0.60;;;10.60;99.90;;;;;;10338923;28;20061;-60
2022/09/17 04:19:11;;;;;;;1.55;0.60;;;10.60;99.90;;;;;;10332198;28;20129;-59
2022/09/17 04:24:12;;;;;;;2.22;0.40;;;10.70;99.90;;;;;;10336559;28;20060;-60
2022/09/17 04:29:14;;;;;;;1.85;0.30;;;10.70;99.90;;;;;;10333312;28;20558;-59
2022/09/17 04:34:16;;;;;;;1.58;0.20;;;10.70;99.90;;;;;;10330353;28;20391;-59
2022/09/17 04:39:17;;;;;;;4.05;0.30;;;10.80;99.90;;;;;;10334173;28;20132;-60
2022/09/17 04:44:19;;;;;;;2.00;0.40;;;10.70;99.90;;;;;;10332748;28;20065;-59
2022/09/17 04:49:21;;;;;;;3.63;0.40;;;10.70;99.90;;;;;;10332241;28;20058;-58
2022/09/17 04:54:23;;;;;;;2.28;0.30;;;10.70;99.90;;;;;;10330500;28;20129;-58
2022/09/17 04:59:25;;;;;;;0.40;0.35;;;10.70;99.90;;;;;;10327819;28;20130;-61
2022/09/17 05:04:26;;;;;;;2.72;0.30;;;10.70;99.90;;;;;;10334135;28;20076;-61
2022/09/17 05:09:28;;;;;;;4.82;0.35;;;10.80;99.90;;;;;;10327887;28;20509;-61
2022/09/17 05:14:29;;;;;;;3.33;0.40;;;10.80;99.90;;;;;;10320302;28;20049;-60
2022/09/17 05:19:31;;;;;;;0.40;0.30;;;10.80;99.90;;;;;;10332090;28;20078;-62
2022/09/17 05:24:36;;;;;;;5.57;0.47;;;10.80;99.90;;;;;;10324323;28;20385;-61
2022/09/17 05:29:38;;;;;;;1.35;0.38;;;10.80;99.90;;;;;;10324263;28;20057;-60
2022/09/17 05:34:40;;;;;;;1.90;0.40;;;10.80;99.90;;;;;;10327008;28;20125;-63
2022/09/17 05:39:42;;;;;;;1.77;0.55;;;10.80;99.90;;;;;;10330532;28;20046;-61
2022/09/17 05:44:43;;;;;;;0.98;0.60;;;10.70;99.90;;;;;;10324339;28;20120;-60
2022/09/17 05:49:45;;;;;;;6.25;0.52;;;10.70;99.90;;;;;;10316636;28;20050;-60
2022/09/17 05:54:47;;;;;;;2.30;0.30;;;10.70;99.90;;;;;;10327498;28;20085;-62
2022/09/17 05:59:49;;;;;;;4.03;0.47;;;10.70;99.90;;;;;;10332109;28;20062;-62
2022/09/17 06:04:50;;;;;;;2.40;0.70;;;10.80;99.90;;;;;;10331450;28;20149;-62
2022/09/17 06:09:52;;;;;;;3.80;0.60;;;10.80;99.90;;;;;;10341837;28;20054;-62
2022/09/17 06:14:54;;;;;;;3.55;0.57;;;10.90;99.90;;;;;;10335624;28;20137;-62
2022/09/17 06:19:55;;;;;;;1.10;0.50;;;11.00;99.90;;;;;;10337210;28;20125;-63
2022/09/17 06:24:58;;;;;;;4.95;0.60;;;11.00;99.90;;;;;;10331749;28;20061;-63
2022/09/17 06:30:00;;;;;;;6.43;0.63;;;11.10;99.90;;;;;;10334852;28;20499;-62
2022/09/17 06:35:02;;;;;;;3.58;0.70;;;11.20;99.90;;;;;;10337719;28;20046;-62
2022/09/17 06:40:04;;;;;;;5.43;0.60;;;11.30;99.90;;;;;;10342084;28;20046;-62
2022/09/17 06:45:07;;;;;;;4.57;0.70;;;11.40;99.90;;;;;;10333785;28;20054;-61
2022/09/17 06:50:15;;;;;;;3.25;0.50;;;11.50;99.90;;;;;;10333884;28;20050;-63
2022/09/17 06:55:17;;;;;;;8.00;0.85;;;11.70;99.90;;;;;;10327631;28;20053;-62
2022/09/17 07:00:19;;;;;;;2.47;0.73;;;11.90;99.90;;;;;;10329586;28;20046;-62
2022/09/17 07:05:20;;;;;;;5.68;0.68;;;12.00;99.90;;;;;;10333881;28;20124;-62
2022/09/17 07:10:22;;;;;;;4.07;1.13;;;12.10;99.90;;;;;;10336230;28;20064;-64
2022/09/17 07:15:24;;;;;;;3.30;0.90;;;12.20;99.90;;;;;;10336802;28;20065;-63
2022/09/17 07:20:25;;;;;;;4.30;0.60;;;12.30;99.90;;;;;;10332752;28;20200;-65
2022/09/17 07:25:27;;;;;;;2.78;0.68;;;12.40;99.90;;;;;;10344036;28;20671;-65
2022/09/17 07:30:29;;;;;;;5.07;0.65;;;12.50;99.90;;;;;;10335183;28;20129;-63
2022/09/17 07:35:30;;;;;;;3.00;0.50;;;12.50;99.90;;;;;;10333998;28;20144;-64
2022/09/17 07:40:32;;;;;;;5.97;0.55;;;12.50;99.90;;;;;;10338058;28;20147;-64
2022/09/17 07:45:34;;;;;;;2.03;0.80;;;12.60;99.90;;;;;;10336189;28;20042;-63
2022/09/17 07:50:36;;;;;;;4.72;0.60;;;12.70;99.90;;;;;;10329810;28;22885;-64
2022/09/17 07:55:38;;;;;;;5.05;0.70;;;12.70;99.90;;;;;;10327555;28;20137;-62
2022/09/17 08:00:40;;;;;;;11.13;0.73;;;12.90;99.90;;;;;;10323351;28;20062;-62
2022/09/17 08:05:42;;;;;;;4.30;0.60;;;13.10;99.90;;;;;;10331193;28;20117;-64
2022/09/17 08:10:44;;;;;;;2.05;0.50;;;12.90;99.90;;;;;;10329809;28;20054;-65
2022/09/17 08:15:45;;;;;;;6.22;0.80;;;12.90;99.90;;;;;;10334018;28;20704;-64
2022/09/17 08:20:47;;;;;;;3.35;0.60;;;13.10;99.90;;;;;;10330055;28;20484;-64
2022/09/17 08:25:56;;;;;;;2.65;0.40;;;13.20;99.90;;;;;;10329399;28;20122;-63
2022/09/17 08:31:04;;;;;;;1.30;0.40;;;13.20;99.90;;;;;;10331589;28;20644;-62
2022/09/17 08:36:08;;;;;;;1.88;0.40;;;13.20;99.90;;;;;;10336736;28;20084;-62
2022/09/17 08:41:20;;;;;;;0.85;0.20;;;13.30;99.90;;;;;;10332031;28;20068;-63
2022/09/17 08:46:23;;;;;;;3.67;0.40;;;13.20;99.90;;;;;;10328138;28;20129;-64
2022/09/17 08:51:53;;;;;;;3.70;0.45;;;13.30;99.90;;;;;;10326474;28;20046;-62
2022/09/17 08:57:16;;;;;;;2.95;0.30;;;13.50;99.90;;;;;;10328960;28;20042;-62
2022/09/17 09:02:42;;;;;;;3.55;0.38;;;13.70;99.90;;;;;;10326875;28;20042;-66
2022/09/17 09:07:49;;;;;;;2.53;0.32;;;13.80;99.90;;;;;;10331920;28;20047;-63
2022/09/17 09:12:52;;;;;;;3.17;0.40;;;14.00;99.90;;;;;;10328251;28;20046;-65
2022/09/17 09:18:00;;;;;;;1.40;0.30;;;14.30;99.90;;;;;;10324592;28;20042;-63
2022/09/17 09:23:16;;;;;;;3.25;0.50;;;14.40;99.90;;;;;;10322648;28;20132;-64
2022/09/17 09:28:51;;;;;;;1.15;0.40;;;14.40;99.90;;;;;;10329710;28;20139;-64
2022/09/17 09:33:55;;;;;;;4.63;0.40;;;14.30;99.90;;;;;;10323382;28;20604;-63
2022/09/17 09:39:03;;;;;;;3.05;0.30;;;14.80;99.90;;;;;;10329135;28;20078;-65
2022/09/17 09:44:10;;;;;;;4.15;0.30;;;14.80;99.90;;;;;;10326354;28;20081;-66
2022/09/17 09:49:48;;;;;;;2.97;0.50;;;14.80;99.90;;;;;;10328896;28;20419;-66
2022/09/17 09:54:53;;;;;;;3.63;0.40;;;14.80;99.90;;;;;;10320523;28;20583;-66
2022/09/17 10:00:29;;;;;;;5.78;0.60;;;14.30;99.90;;;;;;10328870;28;20121;-65
2022/09/17 10:05:31;;;;;;;4.50;0.30;;;14.20;99.90;;;;;;10332474;28;20577;-64
2022/09/17 10:10:32;;;;;;;4.63;0.50;;;14.00;99.90;;;;;;10328432;28;20053;-66
2022/09/17 10:15:35;;;;;;;3.65;0.40;;;14.10;99.90;;;;;;10329615;28;20046;-67
2022/09/17 10:20:54;;;;;;;3.63;0.30;;;13.90;99.90;;;;;;10312195;28;20081;-66
2022/09/17 10:25:56;;;;;;;1.02;0.30;;;13.90;99.90;;;;;;10327822;28;20133;-68
2022/09/17 10:31:05;;;;;;;1.30;0.20;;;13.90;99.90;;;;;;10339731;28;20042;-71
2022/09/17 10:36:13;;;;;;;1.55;0.20;;;13.60;99.90;;;;;;10346925;28;20161;-66
2022/09/17 10:41:23;;;;;;;2.70;0.30;;;13.40;99.90;;;;;;10335573;28;20057;-68
2022/09/17 10:46:29;;;;;;;1.33;0.20;;;13.50;99.90;;;;;;10345326;28;20133;-69
2022/09/17 10:51:32;;;;;;;2.40;0.23;;;13.70;99.90;;;;;;10334411;28;20046;-68
2022/09/17 10:56:38;;;;;;;3.05;0.40;;;13.50;99.90;;;;;;10351987;28;20125;-67
2022/09/17 11:02:07;;;;;;;4.03;0.30;;;13.50;99.90;;;;;;10334453;28;20104;-68
2022/09/17 11:07:12;;;;;;;2.05;0.20;;;13.70;99.90;;;;;;10316946;28;20046;-68
2022/09/17 11:12:38;;;;;;;3.70;0.57;;;13.70;99.90;;;;;;10349294;28;20155;-66
2022/09/17 11:18:22;;;;;;;3.95;0.28;;;13.40;99.90;;;;;;10330464;28;20476;-68
2022/09/17 11:23:24;;;;;;;10.73;1.98;;;13.20;99.90;;;;;;10340648;28;20045;-69
2022/09/17 11:29:11;;;;;;;3.03;0.63;;;13.30;99.90;;;;;;10415615;22;20045;-87
2022/09/17 11:34:22;;;;;;;7.63;0.37;;;13.90;99.90;;;;;;10414468;28;20128;-87
2022/09/17 11:39:42;;;;;;;3.83;0.32;;;14.50;99.90;;;;;;10398392;28;20053;-87
2022/09/17 11:45:13;;;;;;;4.80;0.08;;;14.30;99.90;;;;;;10401940;28;20052;-87
2022/09/17 11:50:26;;;;;;;1.52;0.10;;;13.10;99.90;;;;;;10396724;28;20056;-87
2022/09/17 11:55:49;;;;;;;4.13;0.15;;;12.80;99.90;;;;;;10392775;28;20484;-87
2022/09/17 12:01:01;;;;;;;1.85;0.20;;;12.90;99.90;;;;;;10401552;28;20049;-88
2022/09/17 12:06:15;;;;;;;0.45;0.35;;;13.40;99.90;;;;;;10417349;28;20049;-88
2022/09/17 12:11:44;;;;;;;1.13;0.70;;;13.80;99.90;;;;;;10411111;28;20044;-90
2022/09/17 12:16:51;;;;;;;0.43;0.10;;;14.00;99.90;;;;;;10406878;28;20049;-91
2022/09/17 12:21:55;;;;;;;0.10;0.10;;;14.70;99.90;;;;;;10435325;28;20049;-90
2022/09/17 12:27:06;;;;;;;0.20;0.10;;;15.30;99.90;;;;;;10407383;28;20049;-90
2022/09/17 12:32:32;;;;;;;0.52;0.10;;;15.30;99.90;;;;;;10413770;28;20055;-90
2022/09/17 12:37:58;;;;;;;3.70;0.40;;;15.30;99.90;;;;;;10400020;28;20057;-89
2022/09/17 12:43:06;;;;;;;2.10;0.00;;;15.60;99.90;;;;;;10401888;28;20041;-91
2022/09/17 12:48:22;;;;;;;3.58;0.10;;;15.90;99.90;;;;;;10408040;28;20144;-91
2022/09/17 12:53:28;;;;;;;2.05;0.10;;;16.40;99.90;;;;;;10405971;28;20041;-88
2022/09/17 12:58:43;;;;;;;3.67;0.57;;;16.20;99.90;;;;;;10411419;28;20045;-91
2022/09/17 13:03:54;;;;;;;0.65;0.05;;;16.10;99.90;;;;;;10399006;28;20051;-89
2022/09/17 13:09:10;;;;;;;1.67;0.10;;;16.40;99.90;;;;;;10403386;28;20053;-89
2022/09/17 13:19:51;;;;;;;0.30;0.00;;;16.60;99.90;;;;;;10319294;28;20565;-68
2022/09/17 13:25:10;;;;;;;0.63;0.00;;;16.70;99.90;;;;;;10324285;28;20089;-68
2022/09/17 13:30:20;;;;;;;0.20;0.00;;;16.80;99.90;;;;;;10312401;28;20058;-66
2022/09/17 13:35:22;;;;;;;0.35;0.00;;;16.80;99.90;;;;;;10324954;28;20078;-68
2022/09/17 13:40:25;;;;;;;0.82;0.03;;;16.60;99.90;;;;;;10322949;28;20571;-68
2022/09/17 13:45:27;;;;;;;0.17;0.17;;;16.80;99.90;;;;;;10324330;28;20046;-67
2022/09/17 13:50:36;;;;;;;1.20;0.00;;;17.00;99.90;;;;;;10321994;28;20077;-66
2022/09/17 13:55:39;;;;;;;0.13;0.10;;;16.50;99.90;;;;;;10321569;28;20468;-65
2022/09/17 14:00:57;;;;;;;3.03;0.10;;;16.10;99.90;;;;;;10303287;28;20417;-67
2022/09/17 14:06:08;;;;;;;2.05;0.00;;;15.80;99.90;;;;;;10321028;28;20456;-66
2022/09/17 14:11:21;;;;;;;2.85;0.20;;;15.20;99.90;;;;;;10323842;28;20145;-65
2022/09/17 14:16:41;;;;;;;0.90;0.10;;;14.30;99.90;;;;;;10306886;28;20065;-65
2022/09/17 14:22:00;;;;;;;1.38;0.10;;;13.90;99.90;;;;;;10294130;28;20085;-66
2022/09/17 14:27:02;;;;;;;1.13;0.10;;;;;;;;;;10313463;28;20145;-67
2022/09/17 14:32:06;;;;;;;0.88;0.10;;;;;;;;;;10311213;28;20070;-67
2022/09/17 14:37:13;;;;;;;1.58;0.00;;;;;;;;;;10293741;28;20101;-67
2022/09/17 14:42:28;;;;;;;0.08;0.00;;;;;;;;;;10312556;28;20096;-67
2022/09/17 14:47:30;;;;;;;0.22;0.00;;;;;;;;;;10294696;28;20042;-67
2022/09/17 14:52:33;;;;;;;0.30;0.10;;;;;;;;;;10310054;28;20156;-66
2022/09/17 14:57:35;;;;;;;0.20;0.00;;;;;;;;;;10309999;28;20128;-68
2022/09/17 15:02:42;;;;;;;0.45;0.00;;;;;;;;;;10290382;28;20054;-69
2022/09/17 15:07:45;;;;;;;1.23;0.10;;;;;;;;;;10289825;28;20046;-67
2022/09/17 15:12:49;;;;;;;3.00;0.00;;;13.40;99.90;;;;;;10310244;28;20400;-67
2022/09/17 15:17:51;;;;;;;0.50;0.00;;;13.50;99.90;;;;;;10294568;28;20137;-68
2022/09/17 15:23:22;;;;;;;1.20;0.35;;;13.60;99.90;;;;;;10310261;28;20129;-67
2022/09/17 15:28:33;;;;;;;0.30;0.10;;;13.70;99.90;;;;;;10305552;28;20116;-68
2022/09/17 15:33:35;;;;;;;2.05;0.20;;;13.70;99.90;;;;;;10285480;28;20074;-67
2022/09/17 15:38:38;;;;;;;1.65;0.10;;;13.70;99.90;;;;;;10306226;28;20041;-67
2022/09/17 15:43:40;;;;;;;0.38;0.20;;;13.70;99.90;;;;;;10300365;28;20133;-64
2022/09/17 15:48:41;;;;;;;0.17;0.00;;;13.70;99.90;;;;;;10286362;28;20137;-65
2022/09/17 15:53:52;;;;;;;0.13;0.00;;;13.70;99.90;;;;;;10291145;28;20133;-66
2022/09/17 15:59:25;;;;;;;0.43;0.00;;;13.30;99.90;;;;;;10306006;28;20136;-65
2022/09/17 16:04:34;;;;;;;0.40;0.03;;;13.10;99.90;;;;;;10306552;28;20112;-65
2022/09/17 16:09:41;;;;;;;0.30;0.00;;;13.10;99.90;;;;;;10308289;28;20076;-63
2022/09/17 16:14:44;;;;;;;0.20;0.10;;;13.10;99.90;;;;;;10294226;28;20591;-63
2022/09/17 16:19:46;;;;;;;0.00;0.00;;;13.10;99.90;;;;;;10275044;28;20651;-63
2022/09/17 16:24:48;;;;;;;0.57;0.00;;;13.10;99.90;;;;;;10303827;28;20072;-64
2022/09/17 16:29:53;;;;;;;0.00;0.00;;;13.30;99.90;;;;;;10301172;28;20177;-65
2022/09/17 16:34:55;;;;;;;0.75;0.10;;;13.20;99.90;;;;;;10308541;28;20082;-64
2022/09/17 16:39:56;;;;;;;0.35;0.00;;;13.30;99.90;;;;;;10307501;28;20046;-65
2022/09/17 16:44:59;;;;;;;2.20;0.10;;;13.30;99.90;;;;;;10307536;28;20050;-64
2022/09/17 16:50:06;;;;;;;0.47;0.00;;;13.30;99.90;;;;;;10308172;28;20062;-64
2022/09/17 16:55:09;;;;;;;3.08;0.08;;;13.10;99.90;;;;;;10305818;28;20138;-65
2022/09/17 17:00:16;;;;;;;0.20;0.13;;;13.00;99.90;;;;;;10304540;28;20074;-65
2022/09/17 17:05:17;;;;;;;0.35;0.03;;;13.00;99.90;;;;;;10291818;28;20070;-64
2022/09/17 17:10:19;;;;;;;1.17;0.00;;;12.90;99.90;;;;;;10303976;28;20108;-62
2022/09/17 17:15:22;;;;;;;1.35;0.10;;;;;;;;;;10303681;28;20142;-65
2022/09/17 17:20:24;;;;;;;0.52;0.00;;;12.80;99.90;;;;;;10306563;28;20157;-64
2022/09/17 17:25:25;;;;;;;2.35;0.10;;;12.70;99.90;;;;;;10308064;28;20121;-64
2022/09/17 17:30:28;;;;;;;0.17;0.00;;;12.60;99.90;;;;;;10312672;28;20097;-62
2022/09/17 17:35:38;;;;;;;1.33;0.15;;;12.50;99.90;;;;;;10305302;28;20104;-64
2022/09/17 17:40:40;;;;;;;1.60;0.10;;;;;;;;;;10302367;28;20046;-65
2022/09/17 17:45:43;;;;;;;1.98;0.20;;;;;;;;;;10314175;28;20132;-64
2022/09/17 17:50:45;;;;;;;2.40;0.15;;;;;;;;;;10314059;28;20046;-69
2022/09/17 17:55:57;;;;;;;0.90;0.10;;;;;;;;;;10315360;28;20077;-62
2022/09/17 18:00:59;;;;;;;0.40;0.10;;;;;;;;;;10314444;28;20129;-59
2022/09/17 18:06:04;;;;;;;0.38;0.10;;;;;;;;;;10318207;28;20437;-59
2022/09/17 18:11:07;;;;;;;1.98;0.22;;;;;;;;;;10306013;28;20145;-59
2022/09/17 18:16:13;;;;;;;0.47;0.10;;;;;;;;;;10301047;28;20145;-62
2022/09/17 18:21:17;;;;;;;5.35;1.67;;;;;;;;;;10302735;28;21179;-58
2022/09/17 18:26:20;;;;;;;0.20;0.00;;;;;;;;;;10293661;28;20066;-61
2022/09/17 18:31:28;;;;;;;3.70;0.10;;;;;;;;;;10305655;28;20056;-59
2022/09/17 18:36:32;;;;;;;1.60;0.08;;;;;;;;;;10306898;28;20121;-60
2022/09/17 18:41:39;;;;;;;3.17;0.10;;;;;;;;;;10304054;28;20054;-61
2022/09/17 18:46:41;;;;;;;0.32;0.10;;;;;;;;;;10286450;28;20058;-61
2022/09/17 18:51:44;;;;;;;1.92;0.10;;;;;;;;;;10303380;28;20046;-60
2022/09/17 18:56:46;;;;;;;1.48;0.10;;;;;;;;;;10304229;28;20058;-61
2022/09/17 19:01:48;;;;;;;0.80;0.10;;;;;;;;;;10303265;28;20125;-61
2022/09/17 19:06:50;;;;;;;1.27;0.10;;;;;;;;;;10299377;28;20069;-60
2022/09/17 19:11:52;;;;;;;0.28;0.00;;;;;;;;;;10300327;28;20471;-61
2022/09/17 19:16:54;;;;;;;1.02;0.20;;;;;;;;;;10298776;28;20078;-60
2022/09/17 19:21:56;;;;;;;3.83;0.20;;;;;;;;;;10300864;28;20106;-60
2022/09/17 19:27:00;;;;;;;2.42;0.10;;;;;;;;;;10294877;28;20050;-60
2022/09/17 19:32:02;;;;;;;1.27;0.10;;;;;;;;;;10296088;28;20469;-59
2022/09/17 19:37:04;;;;;;;0.85;0.10;;;;;;;;;;10304058;28;20046;-60
2022/09/17 19:42:07;;;;;;;1.17;0.10;;;;;;;;;;10296722;28;20173;-59
2022/09/17 19:47:09;;;;;;;1.95;0.20;;;;;;;;;;10295697;28;21122;-60
2022/09/17 19:52:13;;;;;;;1.02;0.10;;;;;;;;;;10283780;28;20133;-59
2022/09/17 19:57:15;;;;;;;1.92;0.10;;;;;;;;;;10278109;28;20054;-60
2022/09/17 20:02:18;;;;;;;1.58;0.10;;;;;;;;;;10299477;28;20149;-59
2022/09/17 20:07:20;;;;;;;0.40;0.15;;;;;;;;;;10279980;28;20089;-61
2022/09/17 20:12:22;;;;;;;2.38;0.20;;;;;;;;;;10297449;28;20124;-60
2022/09/17 20:17:24;;;;;;;1.15;0.20;;;;;;;;;;10280167;28;20064;-62
2022/09/17 20:23:02;;;;;;;2.22;0.20;;;10.90;99.90;;;;;;10445418;27;20126;-61
2022/09/17 20:28:04;;;;;;;3.05;0.63;;;10.70;99.90;;;;;;10456910;28;20045;-62
2022/09/17 20:33:06;;;;;;;5.93;0.25;;;10.60;99.90;;;;;;10475429;27;20583;-61
2022/09/17 20:38:07;;;;;;;1.35;0.28;;;10.60;99.90;;;;;;10453265;28;20059;-61
2022/09/17 20:43:33;;;;;;;0.65;0.10;;;10.60;99.90;;;;;;10460566;28;20056;-60
2022/09/17 20:48:36;;;;;;;1.08;0.20;;;10.60;99.90;;;;;;10455301;28;20437;-59
2022/09/17 20:53:38;;;;;;;2.13;0.10;;;10.60;99.90;;;;;;10467468;28;20123;-60
2022/09/17 20:58:52;;;;;;;3.80;0.20;;;10.60;99.90;;;;;;10468108;28;20069;-61
2022/09/17 21:03:54;;;;;;;3.80;0.50;;;10.60;99.90;;;;;;10466533;28;20044;-61
2022/09/17 21:08:56;;;;;;;1.90;0.20;;;10.60;99.90;;;;;;10464763;28;20070;-61
2022/09/17 21:13:59;;;;;;;2.28;0.20;;;10.60;99.90;;;;;;10473045;28;20471;-59
2022/09/17 21:19:06;;;;;;;3.20;0.17;;;10.50;99.90;;;;;;10442715;28;20525;-60
2022/09/17 21:24:09;;;;;;;1.90;0.20;;;10.50;99.90;;;;;;10439170;28;20132;-60
2022/09/17 21:29:11;;;;;;;3.20;0.10;;;10.60;99.90;;;;;;10422024;28;20052;-60
2022/09/17 21:34:13;;;;;;;2.65;0.20;;;10.60;99.90;;;;;;10390927;28;20463;-62
2022/09/17 21:39:16;;;;;;;1.58;0.20;;;10.70;99.90;;;;;;10395778;28;20162;-61
2022/09/17 21:44:18;;;;;;;2.03;0.20;;;10.70;99.90;;;;;;10411262;28;20063;-62
2022/09/17 21:49:19;;;;;;;3.45;0.20;;;10.70;99.90;;;;;;10409769;28;20367;-63
2022/09/17 21:54:21;;;;;;;3.35;0.38;;;10.70;99.90;;;;;;10412826;28;20069;-61
2022/09/17 21:59:23;;;;;;;4.18;0.30;;;10.70;99.90;;;;;;10417478;28;20057;-60
2022/09/17 22:04:25;;;;;;;2.03;0.40;;;10.60;99.90;;;;;;10412537;28;20056;-61
2022/09/17 22:09:29;;;;;;;0.40;0.35;;;10.60;99.90;;;;;;10415757;28;20106;-61
2022/09/17 22:14:31;;;;;;;0.20;0.20;;;10.70;99.90;;;;;;10413873;28;20165;-60
2022/09/17 22:19:33;;;;;;;0.73;0.20;;;10.60;99.90;;;;;;10406687;28;20199;-60
2022/09/17 22:24:35;;;;;;;0.55;0.20;;;10.70;99.90;;;;;;10402436;28;20045;-61
2022/09/17 22:29:37;;;;;;;4.13;0.63;;;;;;;;;;10388395;28;20161;-61
2022/09/17 22:34:38;;;;;;;5.00;0.20;;;10.80;99.90;;;;;;10399339;28;20057;-60
2022/09/17 22:39:40;;;;;;;2.78;0.20;;;10.80;99.90;;;;;;10389461;28;20052;-61
2022/09/17 22:44:42;;;;;;;2.90;0.47;;;10.90;99.90;;;;;;10404619;28;20499;-62
2022/09/17 22:49:43;;;;;;;0.88;0.32;;;11.00;99.90;;;;;;10420090;28;20191;-61
2022/09/17 22:54:45;;;;;;;2.22;0.30;;;11.10;99.90;;;;;;10398436;28;20056;-60
2022/09/17 22:59:47;;;;;;;6.07;0.20;;;11.20;99.90;;;;;;10384162;28;20128;-61
2022/09/17 23:04:49;;;;;;;0.93;0.20;;;11.20;99.90;;;;;;10417897;28;20134;-61
2022/09/17 23:09:51;;;;;;;3.22;0.20;;;11.30;99.90;;;;;;10419950;28;20139;-61
2022/09/17 23:14:53;;;;;;;3.75;0.40;;;11.40;99.90;;;;;;10413165;28;20048;-60
2022/09/17 23:19:55;;;;;;;0.95;0.20;;;11.40;99.90;;;;;;10414843;28;20142;-61
2022/09/17 23:24:56;;;;;;;3.17;0.28;;;11.40;99.90;;;;;;10416845;28;20080;-61
2022/09/17 23:29:58;;;;;;;1.83;0.20;;;11.40;99.90;;;;;;10418431;28;20156;-61
2022/09/17 23:34:59;;;;;;;3.70;0.75;;;11.50;99.90;;;;;;10399001;28;20448;-60
2022/09/17 23:40:01;;;;;;;1.80;0.30;;;11.50;99.90;;;;;;10424282;28;20053;-61
2022/09/17 23:45:03;;;;;;;2.72;0.20;;;11.50;99.90;;;;;;10423833;28;20053;-61
2022/09/17 23:50:05;;;;;;;3.38;0.57;;;11.50;99.90;;;;;;10424314;28;20077;-61
2022/09/17 23:55:07;;;;;;;0.75;0.32;;;11.50;99.90;;;;;;10423391;28;20454;-61
